Gadsden, Alabama
Current Conditions -  °F | °C
As of 2:35 PM on Wednesday 26 Nov 2014 (Local Time) from KGAD Reporting Station
Clear Clear  
Wind Chill: 13°   Ceiling: Unl
Heat Index: 13°   Visibility: 10mi
Dew Point: -4°   Wind: 7mph
Humidity: 31%   Direction: 230°SW
Pressure: 30.08"   Gusts: NA
Location:  34.01°N, 86.01°W
Report Text: KGAD 262035Z 23006KT 10SM CLR 13/M04 A3008 RMK AO1
Loading
Personal Weather Stations






























Interactive Weather Map New forecast layout! Learn more

10-Day Weather Forecast

Advertisements
Track Severe Weather on mobile